Time;durP1;ratioP1;P1;durP2;ratioP2;P2;SDS_P1;SDS_P2;PMS_P1;PMS_P2;Temp;Humidity;BMP_temperature;BMP_pressure;BME280_temperature;BME280_humidity;BME280_pressure;Samples;Min_cycle;Max_cycle;Signal;HPM_P1;HPM_P2
2023/03/26 00:00:08;;;;;;;1.00;0.60;;;;;;;8.35;95.61;95796.72;5057840;28;20312;-69
2023/03/26 00:02:38;;;;;;;0.90;0.70;;;;;;;8.26;95.40;95806.47;5058187;28;20216;-67
2023/03/26 00:05:05;;;;;;;0.90;0.67;;;;;;;8.30;94.86;95804.28;5057576;28;20200;-67
2023/03/26 00:07:33;;;;;;;2.73;0.97;;;;;;;8.36;94.56;95804.41;5057844;28;20204;-68
2023/03/26 00:10:00;;;;;;;0.40;0.40;;;;;;;8.26;94.06;95797.75;5057719;28;20209;-67
2023/03/26 00:12:26;;;;;;;1.33;0.60;;;;;;;8.22;94.01;95806.97;5057917;28;20216;-69
2023/03/26 00:14:53;;;;;;;3.10;0.60;;;;;;;8.08;94.48;95805.06;5056689;28;20200;-71
2023/03/26 00:17:20;;;;;;;1.43;0.90;;;;;;;8.12;94.07;95793.22;5058098;28;20216;-68
2023/03/26 00:19:46;;;;;;;0.93;0.80;;;;;;;8.06;94.08;95801.81;5058079;28;20915;-71
2023/03/26 00:22:15;;;;;;;2.17;0.80;;;;;;;8.10;93.73;95795.22;5057021;28;20225;-68
2023/03/26 00:24:44;;;;;;;1.37;0.50;;;;;;;8.19;93.33;95796.84;5057061;28;20262;-68
2023/03/26 00:27:11;;;;;;;1.80;0.60;;;;;;;8.23;92.31;95798.13;5057822;28;20639;-70
2023/03/26 00:29:38;;;;;;;2.67;1.53;;;;;;;8.22;92.53;95796.47;5057336;28;20203;-68
2023/03/26 00:32:05;;;;;;;7.33;1.00;;;;;;;8.12;93.09;95798.47;5057446;28;20225;-70
2023/03/26 00:34:33;;;;;;;1.33;0.63;;;;;;;8.07;92.69;95808.66;5057497;28;20581;-68
2023/03/26 00:37:01;;;;;;;4.70;0.83;;;;;;;7.99;93.47;95795.59;5057508;28;20215;-70
2023/03/26 00:39:28;;;;;;;3.20;0.77;;;;;;;7.97;93.85;95800.22;5056821;28;20205;-69
2023/03/26 00:41:55;;;;;;;1.23;0.80;;;;;;;8.03;94.55;95799.50;5057158;28;20319;-70
2023/03/26 00:44:22;;;;;;;0.73;0.50;;;;;;;7.97;94.40;95805.47;5057709;28;20227;-67
2023/03/26 00:46:48;;;;;;;4.67;1.03;;;;;;;7.95;93.86;95799.56;5056940;28;20295;-66
2023/03/26 00:49:15;;;;;;;2.43;0.67;;;;;;;7.87;94.94;95802.22;5056931;28;20724;-68
2023/03/26 00:51:42;;;;;;;0.80;0.70;;;;;;;7.86;95.03;95799.78;5057542;28;20224;-65
2023/03/26 00:54:08;;;;;;;0.70;0.50;;;;;;;7.77;95.73;95796.34;5056316;28;20200;-65
2023/03/26 00:56:35;;;;;;;4.00;0.87;;;;;;;7.89;95.82;95789.72;5056680;28;20203;-68
2023/03/26 00:59:03;;;;;;;1.27;0.70;;;;;;;7.93;95.54;95783.19;5057249;28;20205;-67
2023/03/26 01:01:31;;;;;;;2.60;0.47;;;;;;;7.85;95.69;95785.00;5056777;28;20247;-67
2023/03/26 01:04:18;;;;;;;3.87;0.90;;;;;;;7.96;95.73;95778.38;5056024;28;20196;-66
2023/03/26 01:06:45;;;;;;;1.67;0.70;;;;;;;7.88;95.56;95780.25;5056984;28;20196;-66
2023/03/26 01:09:14;;;;;;;1.30;0.60;;;;;;;7.86;96.55;95774.34;5056548;28;20200;-68
2023/03/26 01:11:41;;;;;;;0.50;0.50;;;;;;;7.77;96.84;95774.56;5056854;28;20231;-68
2023/03/26 01:14:13;;;;;;;1.47;0.70;;;;;;;7.95;96.38;95773.31;5056517;28;20204;-68
2023/03/26 01:16:43;;;;;;;1.23;0.63;;;;;;;7.92;96.78;95768.44;5057098;28;20201;-70
2023/03/26 01:19:16;;;;;;;1.20;0.60;;;;;;;7.92;96.94;95766.59;5056602;28;20858;-65
2023/03/26 01:21:43;;;;;;;2.93;0.70;;;;;;;7.85;96.67;95762.22;5056139;28;20702;-66
2023/03/26 01:24:12;;;;;;;3.50;0.90;;;;;;;7.99;96.54;95748.38;5056283;28;20200;-68
2023/03/26 01:26:51;;;;;;;0.80;0.47;;;;;;;8.00;96.67;95747.38;5055927;28;20196;-66
2023/03/26 01:29:21;;;;;;;0.80;0.70;;;;;;;7.95;97.29;95747.88;5056560;28;20196;-65
2023/03/26 01:31:56;;;;;;;2.80;1.03;;;;;;;8.13;96.37;95750.25;5056149;28;20247;-69
2023/03/26 01:34:32;;;;;;;5.20;1.00;;;;;;;8.03;97.17;95753.13;5056066;28;20200;-67
2023/03/26 01:37:07;;;;;;;1.17;0.90;;;;;;;8.14;97.52;95746.69;5056581;28;20590;-66
2023/03/26 01:39:41;;;;;;;1.90;0.70;;;;;;;8.15;96.94;95737.81;5056727;28;20198;-69
2023/03/26 01:42:15;;;;;;;2.90;1.00;;;;;;;8.17;97.32;95730.56;5056121;28;20230;-65
2023/03/26 01:44:50;;;;;;;5.10;0.90;;;;;;;8.14;97.14;95725.69;5056207;28;20212;-67
2023/03/26 01:47:18;;;;;;;2.53;1.00;;;;;;;8.03;97.87;95718.16;5056493;28;20305;-66
2023/03/26 01:49:44;;;;;;;0.80;0.60;;;;;;;7.92;97.68;95715.97;5056117;28;20216;-67
2023/03/26 01:52:23;;;;;;;1.83;0.93;;;;;;;8.12;97.44;95712.72;5056489;28;20222;-66
2023/03/26 01:54:52;;;;;;;5.00;1.23;;;;;;;8.07;97.92;95714.19;5056547;28;20291;-66
2023/03/26 01:57:27;;;;;;;4.73;0.70;;;;;;;8.14;97.65;95721.25;5056556;28;20211;-68
2023/03/26 02:00:10;;;;;;;4.17;1.13;;;;;;;8.11;97.64;95711.06;5055769;28;20199;-68
2023/03/26 02:02:46;;;;;;;0.70;0.70;;;;;;;8.04;98.83;95704.06;5056714;28;20825;-67
2023/03/26 02:05:20;;;;;;;2.77;1.20;;;;;;;8.02;99.25;95700.81;5053316;28;20204;-68
2023/03/26 02:07:51;;;;;;;4.23;1.10;;;;;;;7.87;99.54;95692.88;5056014;28;20683;-67
2023/03/26 02:10:23;;;;;;;3.30;1.10;;;;;;;8.04;99.23;95683.91;5056097;28;20200;-68
2023/03/26 02:12:50;;;;;;;4.40;0.97;;;;;;;7.93;98.93;95692.19;5055751;28;20227;-67
2023/03/26 02:15:17;;;;;;;4.33;1.37;;;;;;;8.02;97.92;95690.31;5055868;28;20211;-66
2023/03/26 02:17:43;;;;;;;2.30;1.20;;;;;;;7.96;97.97;95691.00;5057061;28;20223;-65
2023/03/26 02:20:13;;;;;;;3.27;0.80;;;;;;;8.16;98.54;95685.16;5056053;28;20200;-65
2023/03/26 02:22:40;;;;;;;1.60;0.90;;;;;;;8.12;98.44;95680.38;5054936;28;20673;-66
2023/03/26 02:25:09;;;;;;;2.13;0.83;;;;;;;8.05;98.01;95672.41;5055564;28;20263;-67
2023/03/26 02:27:37;;;;;;;4.57;1.50;;;;;;;8.14;97.96;95670.56;5055996;28;21001;-63
2023/03/26 02:30:04;;;;;;;2.93;0.90;;;;;;;8.07;98.44;95669.59;5056105;28;20201;-67
2023/03/26 02:32:31;;;;;;;1.40;0.77;;;;;;;7.89;98.37;95662.03;5056106;28;20693;-67
2023/03/26 02:34:57;;;;;;;2.07;1.00;;;;;;;7.91;98.57;95661.88;5055522;28;20677;-67
2023/03/26 02:37:24;;;;;;;1.40;0.80;;;;;;;7.86;98.43;95658.94;5055550;28;20234;-64
2023/03/26 02:39:50;;;;;;;2.07;1.10;;;;;;;7.92;98.48;95663.50;5059671;28;20746;-68
2023/03/26 02:42:17;;;;;;;11.30;1.33;;;;;;;7.93;98.13;95655.44;5059468;28;20704;-67
2023/03/26 02:44:44;;;;;;;3.70;0.80;;;;;;;8.03;98.38;95660.44;5058813;28;20567;-64
2023/03/26 02:47:11;;;;;;;3.93;1.50;;;;;;;7.88;97.79;95649.09;5059468;28;20203;-64
2023/03/26 02:49:37;;;;;;;2.53;0.97;;;;;;;7.73;98.74;95642.97;5059508;28;20217;-67
2023/03/26 02:52:05;;;;;;;3.23;1.03;;;;;;;7.80;98.58;95641.28;5059000;28;20220;-66
2023/03/26 02:54:32;;;;;;;1.73;1.00;;;;;;;7.72;99.09;95630.84;5058758;28;20204;-66
2023/03/26 02:56:58;;;;;;;3.70;1.03;;;;;;;7.74;99.18;95633.28;5059839;28;20677;-67
2023/03/26 02:59:25;;;;;;;3.43;1.27;;;;;;;7.56;99.66;95638.81;5059186;28;20613;-67
2023/03/26 03:01:53;;;;;;;7.73;1.70;;;;;;;7.78;99.80;95638.03;5059100;28;20227;-63
2023/03/26 03:04:20;;;;;;;1.30;1.00;;;;;;;7.58;99.19;95628.97;5058484;28;20895;-64
2023/03/26 03:06:51;;;;;;;2.83;1.07;;;;;;;7.63;99.48;95631.09;5059760;28;20211;-67
2023/03/26 03:09:18;;;;;;;3.13;1.30;;;;;;;7.64;99.35;95628.28;5059283;28;20365;-66
2023/03/26 03:11:45;;;;;;;3.23;1.30;;;;;;;7.62;99.46;95626.81;5058260;28;20696;-67
2023/03/26 03:14:11;;;;;;;2.33;1.03;;;;;;;7.64;99.56;95625.66;5058653;28;20208;-63
2023/03/26 03:16:37;;;;;;;5.10;1.20;;;;;;;7.63;99.00;95616.16;5059778;28;20207;-66
2023/03/26 03:19:05;;;;;;;2.30;0.77;;;;;;;7.68;100.00;95613.81;5058714;28;20209;-66
2023/03/26 03:21:32;;;;;;;2.30;1.03;;;;;;;7.53;99.71;95623.41;5058282;28;20231;-66
2023/03/26 03:23:58;;;;;;;5.03;1.17;;;;;;;7.48;100.00;95620.50;5058375;28;20696;-67
2023/03/26 03:26:26;;;;;;;3.40;1.00;;;;;;;7.62;99.99;95617.13;5058716;28;20204;-67
2023/03/26 03:28:53;;;;;;;4.37;1.40;;;;;;;7.62;100.00;95608.47;5058634;28;20197;-66
2023/03/26 03:31:20;;;;;;;4.33;0.80;;;;;;;7.55;99.93;95604.94;5058960;28;20216;-67
2023/03/26 03:33:47;;;;;;;5.43;1.43;;;;;;;7.45;100.00;95601.72;5058068;28;20246;-67
2023/03/26 03:36:20;;;;;;;8.83;1.00;;;;;;;7.53;100.00;95594.59;5058515;28;21459;-67
2023/03/26 03:38:47;;;;;;;3.03;1.13;;;;;;;7.38;100.00;95600.75;5059077;28;20632;-67
2023/03/26 03:41:14;;;;;;;4.93;1.40;;;;;;;7.26;100.00;95583.78;5058907;28;20232;-63
2023/03/26 03:43:41;;;;;;;1.50;0.90;;;;;;;7.16;100.00;95591.06;5058455;28;20213;-65
2023/03/26 03:46:07;;;;;;;2.13;1.20;;;;;;;7.07;100.00;95581.59;5058690;28;20224;-64
2023/03/26 03:48:36;;;;;;;4.30;1.07;;;;;;;7.08;100.00;95577.19;5058809;28;20212;-67
2023/03/26 03:51:03;;;;;;;2.47;0.90;;;;;;;7.26;100.00;95574.13;5057540;28;20886;-66
2023/03/26 03:53:35;;;;;;;4.47;1.30;;;;;;;7.32;100.00;95581.31;5058435;28;20207;-65
2023/03/26 03:56:03;;;;;;;1.70;1.10;;;;;;;7.27;100.00;95580.19;5058695;28;20204;-67
2023/03/26 03:58:29;;;;;;;3.23;1.13;;;;;;;7.27;100.00;95577.56;5058210;28;20565;-68
2023/03/26 04:00:59;;;;;;;8.63;1.20;;;;;;;7.29;100.00;95580.81;5058055;28;20231;-68
2023/03/26 04:03:27;;;;;;;7.30;1.30;;;;;;;7.27;100.00;95577.56;5057904;28;20201;-67
2023/03/26 04:05:54;;;;;;;1.63;1.10;;;;;;;7.00;100.00;95575.44;5057806;28;20220;-67
2023/03/26 04:08:21;;;;;;;1.50;0.83;;;;;;;7.12;100.00;95568.00;5059222;28;20208;-66
2023/03/26 04:10:50;;;;;;;1.60;0.90;;;;;;;7.26;100.00;95566.25;5058154;28;21318;-67
2023/03/26 04:13:17;;;;;;;2.53;1.03;;;;;;;7.03;100.00;95556.75;5057675;28;20201;-69
2023/03/26 04:15:44;;;;;;;2.63;1.10;;;;;;;7.11;100.00;95554.06;5057247;28;20212;-65
2023/03/26 04:18:10;;;;;;;1.50;1.40;;;;;;;7.09;100.00;95547.38;5058566;28;20200;-70
2023/03/26 04:20:39;;;;;;;2.97;1.17;;;;;;;7.13;100.00;95546.03;5058195;28;20203;-66
2023/03/26 04:23:07;;;;;;;4.50;1.10;;;;;;;7.19;100.00;95538.31;5057184;28;20297;-69
2023/03/26 04:25:35;;;;;;;6.87;1.10;;;;;;;7.20;100.00;95534.69;5057154;28;20236;-67
2023/03/26 04:28:07;;;;;;;1.83;1.20;;;;;;;7.32;100.00;95528.88;5058264;28;20581;-68
2023/03/26 04:30:37;;;;;;;4.53;1.13;;;;;;;7.32;100.00;95526.28;5057165;28;21246;-65
2023/03/26 04:33:05;;;;;;;5.43;1.03;;;;;;;7.39;100.00;95524.56;5057629;28;20228;-66
2023/03/26 04:35:34;;;;;;;3.20;1.40;;;;;;;7.45;100.00;95523.88;5057169;28;20872;-65
2023/03/26 04:38:05;;;;;;;4.50;1.50;;;;;;;7.47;100.00;95511.44;5057760;28;20322;-69
2023/03/26 04:40:33;;;;;;;5.03;1.43;;;;;;;7.59;100.00;95509.22;5057470;28;20201;-66
2023/03/26 04:43:01;;;;;;;5.80;1.50;;;;;;;7.66;100.00;95517.97;5057277;28;20319;-69
2023/03/26 04:45:30;;;;;;;5.00;1.23;;;;;;;7.86;100.00;95527.81;5056543;28;20204;-69
2023/03/26 04:47:57;;;;;;;11.73;1.27;;;;;;;7.81;100.00;95519.66;5057067;28;20673;-66
2023/03/26 04:50:25;;;;;;;4.10;1.07;;;;;;;7.89;99.47;95511.69;5057428;28;20953;-65
2023/03/26 04:52:54;;;;;;;5.27;1.13;;;;;;;7.94;99.25;95509.34;5056998;28;20223;-66
2023/03/26 04:55:24;;;;;;;3.27;1.53;;;;;;;8.02;100.00;95517.19;5056319;28;20201;-69
2023/03/26 04:57:55;;;;;;;1.90;1.07;;;;;;;8.07;99.83;95504.31;5056767;28;20204;-68
2023/03/26 05:00:22;;;;;;;7.60;1.20;;;;;;;7.90;98.94;95502.84;5057219;28;20207;-67
2023/03/26 05:02:52;;;;;;;2.80;1.03;;;;;;;8.03;98.55;95495.16;5055499;28;20224;-66
2023/03/26 05:05:18;;;;;;;2.13;1.10;;;;;;;7.91;98.37;95499.22;5056430;28;20357;-63
2023/03/26 05:07:45;;;;;;;3.43;1.10;;;;;;;7.93;98.71;95497.25;5056832;28;20200;-66
2023/03/26 05:10:14;;;;;;;3.50;1.43;;;;;;;8.05;97.74;95501.06;5056679;28;20201;-68
2023/03/26 05:12:40;;;;;;;4.10;1.20;;;;;;;7.86;98.45;95485.84;5056901;28;20224;-68
2023/03/26 05:15:07;;;;;;;4.90;1.33;;;;;;;8.03;98.38;95474.19;5056361;28;20208;-64
2023/03/26 05:17:40;;;;;;;3.30;1.20;;;;;;;8.00;97.69;95467.47;5057040;28;20204;-64
2023/03/26 05:20:15;;;;;;;1.53;1.20;;;;;;;8.09;97.57;95470.84;5056684;28;20342;-68
2023/03/26 05:22:42;;;;;;;10.33;1.50;;;;;;;8.04;97.33;95465.31;5056540;28;20289;-68
2023/03/26 05:25:09;;;;;;;6.80;1.47;;;;;;;8.00;97.47;95458.81;5056480;28;20200;-66
2023/03/26 05:27:36;;;;;;;6.63;1.27;;;;;;;8.09;97.65;95462.97;5056257;28;20661;-64
2023/03/26 05:30:04;;;;;;;7.30;1.60;;;;;;;8.15;97.70;95470.16;5056692;28;20196;-67
2023/03/26 05:32:31;;;;;;;4.83;1.23;;;;;;;8.04;97.80;95465.31;5056952;28;20228;-66
2023/03/26 05:34:57;;;;;;;5.20;1.20;;;;;;;8.10;97.17;95465.41;5056097;28;20216;-67
2023/03/26 05:37:25;;;;;;;6.93;1.20;;;;;;;8.09;97.91;95471.66;5056382;28;20283;-67
2023/03/26 05:39:54;;;;;;;3.83;1.10;;;;;;;8.09;98.41;95450.66;5056823;28;20212;-67
2023/03/26 05:42:20;;;;;;;5.73;1.37;;;;;;;8.06;99.16;95461.53;5056984;28;20278;-67
2023/03/26 05:44:47;;;;;;;2.10;0.90;;;;;;;8.13;99.01;95461.63;5055261;28;20208;-67
2023/03/26 05:47:13;;;;;;;11.20;1.50;;;;;;;8.13;100.00;95456.38;5056294;28;20211;-67
2023/03/26 05:49:40;;;;;;;5.37;2.17;;;;;;;8.17;98.92;95444.53;5056624;28;20207;-67
2023/03/26 05:52:06;;;;;;;3.23;0.97;;;;;;;8.21;97.71;95437.94;5055940;28;20220;-67
2023/03/26 05:54:34;;;;;;;10.13;1.27;;;;;;;8.38;98.47;95429.69;5055886;28;20197;-67
2023/03/26 05:57:00;;;;;;;3.97;1.50;;;;;;;8.10;98.14;95443.63;5056798;28;20227;-67
2023/03/26 05:59:27;;;;;;;6.93;1.57;;;;;;;8.21;98.32;95440.56;5056041;28;20204;-67
2023/03/26 06:01:53;;;;;;;4.47;1.57;;;;;;;8.35;97.46;95434.50;5055671;28;20239;-67
2023/03/26 06:04:21;;;;;;;3.93;1.47;;;;;;;8.46;97.45;95418.28;5055676;28;20664;-67
2023/03/26 06:06:47;;;;;;;5.07;1.20;;;;;;;8.44;96.62;95422.88;5056541;28;20305;-67
2023/03/26 06:09:14;;;;;;;7.93;1.97;;;;;;;8.41;96.67;95424.06;5055821;28;20204;-67
2023/03/26 06:11:41;;;;;;;11.93;2.97;;;;;;;8.57;97.55;95413.38;5056139;28;20223;-67
2023/03/26 06:14:08;;;;;;;6.27;1.90;;;;;;;8.45;96.46;95414.03;5059153;28;20196;-68
2023/03/26 06:16:34;;;;;;;4.43;1.50;;;;;;;8.58;94.23;95413.19;5059999;28;20642;-67
2023/03/26 06:19:01;;;;;;;3.80;1.27;;;;;;;8.56;92.71;95412.53;5059771;28;20208;-67
2023/03/26 06:21:28;;;;;;;5.03;0.90;;;;;;;8.65;93.19;95406.19;5060010;28;20258;-67
2023/03/26 06:23:55;;;;;;;5.43;1.20;;;;;;;8.76;92.61;95400.47;5059137;28;20668;-68
2023/03/26 06:26:22;;;;;;;8.17;1.47;;;;;;;8.70;92.64;95400.38;5059464;28;20224;-68
2023/03/26 06:28:50;;;;;;;4.57;1.80;;;;;;;8.96;91.70;95404.13;5060137;28;20204;-68
2023/03/26 06:31:17;;;;;;;7.63;1.40;;;;;;;8.89;92.37;95408.47;5058442;28;20223;-68
2023/03/26 06:33:44;;;;;;;7.57;1.77;;;;;;;8.84;92.98;95400.34;5058109;28;20207;-68
2023/03/26 06:36:11;;;;;;;10.40;1.57;;;;;;;8.87;96.00;95402.59;5059149;28;20251;-68
2023/03/26 06:38:38;;;;;;;6.70;1.93;;;;;;;8.85;96.27;95401.97;5059529;28;20592;-67
2023/03/26 06:41:05;;;;;;;3.30;1.57;;;;;;;8.88;97.96;95393.69;5058652;28;20205;-68
2023/03/26 06:43:32;;;;;;;5.40;2.00;;;;;;;8.86;99.19;95392.25;5058804;28;20704;-67
2023/03/26 06:46:00;;;;;;;3.83;1.47;;;;;;;8.85;100.00;95386.19;5058424;28;20205;-67
2023/03/26 06:48:27;;;;;;;9.77;1.50;;;;;;;8.72;100.00;95386.06;5059297;28;20227;-67
2023/03/26 06:50:53;;;;;;;2.70;1.43;;;;;;;8.63;100.00;95381.09;5059099;28;20200;-68
2023/03/26 06:53:20;;;;;;;4.13;2.57;;;;;;;8.58;100.00;95383.50;5058937;28;20205;-68
2023/03/26 06:55:46;;;;;;;6.10;1.97;;;;;;;8.54;100.00;95374.34;5058281;28;20200;-67
2023/03/26 06:58:13;;;;;;;12.97;3.20;;;;;;;8.54;100.00;95372.53;5058467;28;20200;-68
2023/03/26 07:00:41;;;;;;;7.60;2.20;;;;;;;8.49;100.00;95364.41;5058734;28;20866;-67
2023/03/26 07:03:10;;;;;;;11.73;4.13;;;;;;;8.58;100.00;95358.03;5058668;28;20702;-67
2023/03/26 07:05:36;;;;;;;8.63;2.57;;;;;;;8.52;100.00;95361.41;5058650;28;20317;-67
2023/03/26 07:08:03;;;;;;;9.53;3.30;;;;;;;8.56;100.00;95344.28;5058310;28;20200;-67
2023/03/26 07:10:30;;;;;;;5.07;1.60;;;;;;;8.53;100.00;95331.53;5056950;28;20201;-67
2023/03/26 07:12:57;;;;;;;5.97;1.30;;;;;;;8.32;100.00;95325.44;5058448;28;20684;-67
2023/03/26 07:15:24;;;;;;;7.57;1.27;;;;;;;8.37;100.00;95319.63;5057303;28;20910;-67
2023/03/26 07:17:50;;;;;;;8.00;1.23;;;;;;;8.37;100.00;95327.50;5057148;28;20330;-67
2023/03/26 07:20:19;;;;;;;7.27;2.07;;;;;;;8.41;100.00;95318.28;5057433;28;20201;-67
2023/03/26 07:22:46;;;;;;;5.67;1.30;;;;;;;8.32;100.00;95303.63;5057857;28;20227;-67
2023/03/26 07:25:14;;;;;;;4.50;1.40;;;;;;;8.30;100.00;95310.88;5055356;28;20334;-67
2023/03/26 07:27:50;;;;;;;6.77;1.50;;;;;;;8.53;100.00;95307.09;5057495;28;20204;-67
2023/03/26 07:30:24;;;;;;;10.93;1.40;;;;;;;8.45;100.00;95298.53;5058958;28;20578;-67
2023/03/26 07:32:55;;;;;;;5.30;1.30;;;;;;;8.40;100.00;95290.38;5058546;28;20227;-67
2023/03/26 07:35:28;;;;;;;6.33;1.77;;;;;;;8.54;100.00;95288.53;5057458;28;20203;-67
2023/03/26 07:38:13;;;;;;;9.50;1.80;;;;;;;8.62;100.00;95275.25;5057259;28;20208;-67
2023/03/26 07:40:52;;;;;;;2.83;1.33;;;;;;;8.64;100.00;95269.81;5058584;28;20208;-67
2023/03/26 07:43:31;;;;;;;5.67;1.30;;;;;;;8.67;100.00;95262.38;5057999;28;20216;-67
2023/03/26 07:45:58;;;;;;;3.93;1.63;;;;;;;8.44;100.00;95265.38;5057864;28;20212;-67
2023/03/26 07:48:29;;;;;;;5.10;1.37;;;;;;;8.46;100.00;95258.16;5057867;28;20201;-67
2023/03/26 07:50:58;;;;;;;11.07;1.77;;;;;;;8.44;100.00;95254.88;5056533;28;20212;-67
2023/03/26 07:53:25;;;;;;;2.73;1.27;;;;;;;8.45;100.00;95246.00;5058186;28;20193;-68
2023/03/26 07:55:57;;;;;;;7.90;0.97;;;;;;;8.48;100.00;95240.38;5057295;28;20209;-67
2023/03/26 07:58:42;;;;;;;7.10;2.17;;;;;;;8.67;100.00;95246.63;5058380;28;20295;-67
2023/03/26 08:01:17;;;;;;;4.97;1.70;;;;;;;8.57;100.00;95250.59;5057717;28;20227;-67
2023/03/26 08:03:57;;;;;;;3.80;1.40;;;;;;;8.94;100.00;95250.28;5056856;28;20223;-67
2023/03/26 08:06:34;;;;;;;5.57;1.50;;;;;;;8.96;100.00;95241.22;5058900;28;20211;-67
2023/03/26 08:09:09;;;;;;;14.93;1.53;;;;;;;8.89;100.00;95237.72;5057996;28;20282;-67
2023/03/26 08:11:47;;;;;;;5.57;1.50;;;;;;;8.88;100.00;95227.41;5055424;28;20220;-67
2023/03/26 08:14:27;;;;;;;4.13;1.23;;;;;;;8.87;100.00;95231.03;5054667;28;20644;-67
2023/03/26 08:16:56;;;;;;;4.60;1.40;;;;;;;8.92;100.00;95224.19;5056503;28;20587;-66
2023/03/26 08:19:44;;;;;;;6.93;1.33;;;;;;;8.83;100.00;95221.91;5057956;28;20287;-68
2023/03/26 08:22:19;;;;;;;2.10;1.30;;;;;;;8.90;100.00;95226.22;5056534;28;20572;-66
2023/03/26 08:24:58;;;;;;;5.33;1.77;;;;;;;8.90;100.00;95223.59;5055398;28;20704;-69
2023/03/26 08:27:36;;;;;;;5.73;1.27;;;;;;;8.87;100.00;95216.09;5056358;28;20200;-68
2023/03/26 08:30:09;;;;;;;5.53;1.33;;;;;;;8.81;100.00;95216.84;5056665;28;20205;-68
2023/03/26 08:32:36;;;;;;;3.93;1.70;;;;;;;8.52;100.00;95219.63;5057328;28;20727;-67
2023/03/26 08:35:03;;;;;;;4.27;1.10;;;;;;;8.43;100.00;95217.34;5055428;28;20215;-67
2023/03/26 08:37:31;;;;;;;3.17;1.20;;;;;;;8.49;100.00;95214.78;5056272;28;20196;-67
2023/03/26 08:39:58;;;;;;;6.30;2.33;;;;;;;8.36;100.00;95213.81;5056717;28;20794;-66
2023/03/26 08:43:18;;;;;;;3.90;1.73;;;;;;;8.51;100.00;95220.66;5055753;28;20235;-67
2023/03/26 08:46:27;;;;;;;11.03;2.30;;;;;;;8.63;100.00;95213.88;5023447;28;20224;-70
2023/03/26 08:49:03;;;;;;;6.47;2.73;;;;;;;8.56;100.00;95212.19;5056123;28;20265;-71
2023/03/26 08:52:02;;;;;;;5.83;1.90;;;;;;;8.51;100.00;95207.53;5056622;28;20223;-69
2023/03/26 08:55:03;;;;;;;7.40;1.73;;;;;;;8.52;100.00;95209.13;5055923;28;20211;-70
2023/03/26 08:58:14;;;;;;;9.53;1.80;;;;;;;8.55;100.00;95210.56;5056263;28;20197;-67
2023/03/26 09:00:57;;;;;;;6.40;1.80;;;;;;;8.53;100.00;95197.63;5040767;28;20200;-67
2023/03/26 09:03:45;;;;;;;8.60;2.37;;;;;;;8.44;100.00;95191.88;5055786;28;20223;-66
2023/03/26 09:06:28;;;;;;;8.63;2.93;;;;;;;8.48;100.00;95188.72;5055939;28;20700;-68
2023/03/26 09:09:46;;;;;;;5.00;1.83;;;;;;;8.33;100.00;95187.16;5055437;28;20743;-66
2023/03/26 09:12:44;;;;;;;5.13;1.57;;;;;;;8.48;100.00;95179.00;5056238;28;20723;-66
2023/03/26 09:16:07;;;;;;;6.97;2.23;;;;;;;8.45;100.00;95169.91;5055371;28;20200;-67
2023/03/26 09:18:53;;;;;;;5.93;1.97;;;;;;;8.48;100.00;95163.25;4994910;28;20203;-67
2023/03/26 09:22:04;;;;;;;4.40;1.70;;;;;;;8.49;100.00;95154.38;5047771;28;20220;-67
2023/03/26 09:24:53;;;;;;;9.37;2.00;;;;;;;8.59;100.00;95139.13;5049774;28;20227;-67
2023/03/26 09:27:37;;;;;;;4.97;2.80;;;;;;;8.61;100.00;95134.47;5053314;28;20208;-67
2023/03/26 09:30:31;;;;;;;11.67;4.83;;;;;;;8.73;100.00;95130.34;5055941;28;20207;-67
2023/03/26 09:33:32;;;;;;;6.50;2.43;;;;;;;8.66;100.00;95128.66;5055389;28;20315;-67
2023/03/26 09:36:20;;;;;;;5.13;2.20;;;;;;;8.70;100.00;95125.44;5051744;28;20208;-67
2023/03/26 09:38:52;;;;;;;9.07;2.40;;;;;;;8.50;100.00;95132.41;5054603;28;20222;-67
2023/03/26 09:41:34;;;;;;;6.10;2.27;;;;;;;8.76;100.00;95134.38;5055769;28;20690;-67
2023/03/26 09:44:26;;;;;;;3.37;1.90;;;;;;;8.70;100.00;95128.06;5055976;28;20228;-67
2023/03/26 09:47:20;;;;;;;12.27;2.63;;;;;;;8.95;100.00;95125.78;5054876;28;20204;-68
2023/03/26 09:49:51;;;;;;;15.57;2.53;;;;;;;8.76;100.00;95129.94;5056309;28;20242;-68
2023/03/26 09:52:45;;;;;;;9.47;2.03;;;;;;;8.67;100.00;95131.09;5055490;28;20216;-67
2023/03/26 09:55:29;;;;;;;14.37;3.50;;;;;;;8.81;100.00;95137.25;5055575;28;20204;-67
2023/03/26 09:58:10;;;;;;;16.97;4.17;;;;;;;8.76;100.00;95143.06;5056293;28;20212;-67
2023/03/26 10:00:44;;;;;;;8.80;2.33;;;;;;;8.85;100.00;95160.31;5057033;28;20259;-67
2023/03/26 10:03:36;;;;;;;6.07;2.20;;;;;;;9.07;100.00;95142.66;5055750;28;20228;-67
2023/03/26 10:06:20;;;;;;;14.83;4.73;;;;;;;9.16;100.00;95152.78;5055844;28;20204;-67
2023/03/26 10:09:06;;;;;;;8.23;2.90;;;;;;;9.25;100.00;95151.63;5057544;28;20197;-68
2023/03/26 10:11:48;;;;;;;4.77;1.30;;;;;;;9.29;100.00;95153.69;5056329;28;20220;-67
2023/03/26 10:14:22;;;;;;;2.43;1.50;;;;;;;9.20;100.00;95159.28;5055301;28;20196;-67
2023/03/26 10:17:06;;;;;;;5.17;1.50;;;;;;;9.32;100.00;95141.97;5055157;28;20619;-66
2023/03/26 10:19:57;;;;;;;7.33;2.20;;;;;;;9.33;100.00;95119.91;5053981;28;20206;-69
2023/03/26 10:22:42;;;;;;;6.93;2.43;;;;;;;9.49;100.00;95116.97;5054589;28;20231;-67
2023/03/26 10:25:34;;;;;;;27.93;6.77;;;;;;;9.51;100.00;95121.00;5054327;28;20277;-70
2023/03/26 10:28:13;;;;;;;8.90;3.27;;;;;;;9.61;100.00;95115.38;5055410;28;20216;-66
2023/03/26 10:31:06;;;;;;;12.17;3.83;;;;;;;9.93;100.00;95110.19;5056432;28;20201;-67
2023/03/26 10:33:48;;;;;;;11.97;4.67;;;;;;;9.82;100.00;95122.09;5055730;28;20223;-67
2023/03/26 10:36:28;;;;;;;2.80;1.60;;;;;;;9.64;100.00;95134.19;5054040;28;20270;-69
2023/03/26 10:39:22;;;;;;;4.17;1.80;;;;;;;9.59;100.00;95110.31;5055498;28;20216;-68
2023/03/26 10:41:56;;;;;;;8.80;2.47;;;;;;;9.44;100.00;95107.03;5055119;28;20313;-65
2023/03/26 10:44:53;;;;;;;7.60;1.90;;;;;;;10.11;100.00;95118.34;5054260;28;20226;-68
2023/03/26 10:47:33;;;;;;;2.60;1.33;;;;;;;10.08;100.00;95105.56;5053970;28;20227;-68
2023/03/26 10:50:20;;;;;;;6.40;2.40;;;;;;;10.30;100.00;95097.31;5054614;28;20227;-70
2023/03/26 10:52:52;;;;;;;11.60;3.03;;;;;;;10.51;100.00;95084.75;5055060;28;20596;-70
2023/03/26 10:55:22;;;;;;;4.97;2.50;;;;;;;10.83;100.00;95086.47;5054542;28;20228;-70
2023/03/26 10:57:54;;;;;;;5.03;2.83;;;;;;;10.70;100.00;95083.09;5055359;28;20196;-69
2023/03/26 11:00:25;;;;;;;0.80;0.70;;;;;;;10.45;100.00;95087.34;5055544;28;20201;-70
2023/03/26 11:03:20;;;;;;;3.40;1.43;;;;;;;10.86;100.00;95072.09;5057558;28;20221;-68
2023/03/26 11:05:56;;;;;;;3.93;1.53;;;;;;;11.33;100.00;95070.72;5058021;28;20204;-67
2023/03/26 11:08:31;;;;;;;1.60;1.10;;;;;;;11.38;100.00;95073.53;5059213;28;21086;-69
2023/03/26 11:11:05;;;;;;;1.23;1.00;;;;;;;11.26;100.00;95069.94;5058983;28;20200;-68
2023/03/26 11:13:41;;;;;;;1.43;0.70;;;;;;;11.55;100.00;95058.88;5058879;28;20201;-71
2023/03/26 11:16:16;;;;;;;4.23;1.20;;;;;;;11.52;99.65;95051.41;5057962;28;20233;-68
2023/03/26 11:18:49;;;;;;;3.13;1.57;;;;;;;11.66;96.93;95051.09;5058034;28;20837;-68
2023/03/26 11:21:24;;;;;;;3.60;1.20;;;;;;;12.06;97.69;95062.22;5057909;28;20213;-67
2023/03/26 11:24:07;;;;;;;1.33;0.93;;;;;;;11.79;97.21;95060.78;5057885;28;20230;-67
2023/03/26 11:26:45;;;;;;;1.43;0.90;;;;;;;11.85;95.63;95063.38;5058568;28;21133;-70
2023/03/26 11:29:39;;;;;;;1.20;0.90;;;;;;;12.14;95.15;95069.88;5058033;28;20204;-66
2023/03/26 11:32:10;;;;;;;1.07;0.97;;;;;;;11.70;93.25;95085.81;5058233;28;20335;-71
2023/03/26 11:34:41;;;;;;;2.30;1.17;;;;;;;11.11;97.31;95203.03;5058799;28;20201;-70
2023/03/26 11:37:16;;;;;;;0.30;0.30;;;;;;;8.19;95.61;95183.59;5062568;28;20212;-67
2023/03/26 11:43:08;;;;;;;0.30;0.30;;;;;;;6.93;100.00;95146.81;5057690;28;20226;-69
2023/03/26 11:45:36;;;;;;;0.47;0.43;;;;;;;6.97;100.00;95124.50;5058898;28;20200;-67
2023/03/26 11:48:08;;;;;;;2.67;0.60;;;;;;;7.08;100.00;95116.22;5058094;28;20728;-67
2023/03/26 11:50:41;;;;;;;1.53;0.90;;;;;;;7.12;100.00;95102.53;5059252;28;20236;-66
2023/03/26 11:53:13;;;;;;;0.50;0.50;;;;;;;7.32;100.00;95114.09;5057816;28;20212;-68
2023/03/26 11:55:46;;;;;;;3.00;1.30;;;;;;;7.63;100.00;95104.13;5056793;28;20207;-69
2023/03/26 11:58:24;;;;;;;0.50;0.50;;;;;;;7.65;100.00;95115.22;5058608;28;20204;-69
2023/03/26 16:06:08;;;;;;;1.53;0.70;;;;;;;12.79;60.25;94896.47;5053193;27;20586;-68
2023/03/26 16:08:45;;;;;;;1.10;0.70;;;;;;;12.73;55.77;94904.47;5053077;28;20211;-68
2023/03/26 16:11:12;;;;;;;3.07;0.60;;;;;;;12.63;57.01;94905.00;5052847;28;20231;-68